PWSweather.com
Personal Weather Stations
Station Observations
PITCARMI1
La Serra, CarmignanoIT 59015

La SerraCarmignanoIT 59015

Lat: 43.804429, Lon: 11.027222

Elevation: 525

Station Type: Davis Vantage Vue

http://www.meteocarmignano.it

High Low Average
Temperature 69.1°F20.6°C 50.2°F10.1°C 59.6°F15.3°C
Dew Point 54.9°F12.7°C 45.7°F7.6°C 50.6°F10.3°C
Winds 18.4 mph 29.6 kmh Calm Calm 4.0 mph SSW6.4 kmh SSW
Wind Gusts 28.8 mph46.3 kmh -- 7.0 mph11.3 kmh
Humidity 91% 56% 73%
Pressure 29.92 in1013.2 mb 29.76 in1007.8 mb -
Precipitation 0.00 in0.0 mm - -
Hour Temp Dew Point Humidity Winds Wind Gusts Pressure Precip Precip Rate Daily Precip Total
12:00 AM 53.8°F12.1°C 49.1°F9.5°C 84% 2.3 mph SW3.7 kmh SW 6.9 mph11.1 kmh 29.77 in1008.1 mb - 0.00 in0.0 mm 0.00 in0.0 mm
12:30 AM 56.0°F13.3°C 48.6°F9.2°C 76% 8.1 mph WSW13.0 kmh WSW 11.5 mph18.5 kmh 29.76 in1007.8 mb - 0.00 in0.0 mm 0.00 in0.0 mm
01:00 AM 56.3°F13.5°C 47.4°F8.6°C 72% 8.1 mph WSW13.0 kmh WSW 13.8 mph22.2 kmh 29.76 in1007.8 mb - 0.00 in0.0 mm 0.00 in0.0 mm
01:30 AM 56.2°F13.4°C 46.2°F7.9°C 69% 2.3 mph WNW3.7 kmh WNW 3.5 mph5.6 kmh 29.76 in1007.8 mb - 0.00 in0.0 mm 0.00 in0.0 mm
02:00 AM 56.1°F13.4°C 45.7°F7.6°C 68% 3.5 mph WSW5.6 kmh WSW 3.5 mph5.6 kmh 29.76 in1007.8 mb - 0.00 in0.0 mm 0.00 in0.0 mm
02:30 AM 54.7°F12.6°C 45.8°F7.7°C 72% 2.3 mph W3.7 kmh W 2.3 mph3.7 kmh 29.76 in1007.8 mb - 0.00 in0.0 mm 0.00 in0.0 mm
03:00 AM 53.2°F11.8°C 48.2°F9.0°C 83% Calm Calm -- 29.76 in1007.8 mb - 0.00 in0.0 mm 0.00 in0.0 mm
03:30 AM 51.8°F11.0°C 47.4°F8.6°C 85% Calm Calm -- 29.77 in1008.1 mb - 0.00 in0.0 mm 0.00 in0.0 mm
04:00 AM 50.8°F10.4°C 46.1°F7.8°C 84% Calm Calm 2.3 mph3.7 kmh 29.76 in1007.8 mb - 0.00 in0.0 mm 0.00 in0.0 mm
04:30 AM 50.7°F10.4°C 46.4°F8.0°C 85% Calm Calm 1.2 mph1.9 kmh 29.77 in1008.1 mb - 0.00 in0.0 mm 0.00 in0.0 mm
05:00 AM 50.2°F10.1°C 46.5°F8.1°C 87% Calm Calm -- 29.78 in1008.5 mb - 0.00 in0.0 mm 0.00 in0.0 mm
05:30 AM 50.2°F10.1°C 47.1°F8.4°C 89% Calm Calm -- 29.79 in1008.8 mb - 0.00 in0.0 mm 0.00 in0.0 mm
06:00 AM 50.9°F10.5°C 48.1°F8.9°C 90% Calm Calm -- 29.80 in1009.1 mb - 0.00 in0.0 mm 0.00 in0.0 mm
06:30 AM 51.2°F10.7°C 48.7°F9.3°C 91% Calm Calm -- 29.81 in1009.5 mb - 0.00 in0.0 mm 0.00 in0.0 mm
07:00 AM 53.6°F12.0°C 50.1°F10.1°C 88% Calm Calm 1.2 mph1.9 kmh 29.81 in1009.5 mb - 0.00 in0.0 mm 0.00 in0.0 mm
07:30 AM 55.7°F13.2°C 50.7°F10.4°C 83% 1.2 mph E1.9 kmh E 3.5 mph5.6 kmh 29.81 in1009.5 mb - 0.00 in0.0 mm 0.00 in0.0 mm
08:00 AM 55.2°F12.9°C 50.7°F10.4°C 85% Calm Calm 1.2 mph1.9 kmh 29.82 in1009.8 mb - 0.00 in0.0 mm 0.00 in0.0 mm
08:30 AM 57.3°F14.1°C 51.5°F10.8°C 81% 1.2 mph ENE1.9 kmh ENE 2.3 mph3.7 kmh 29.82 in1009.8 mb - 0.00 in0.0 mm 0.00 in0.0 mm
09:00 AM 60.6°F15.9°C 53.0°F11.7°C 76% 2.3 mph E3.7 kmh E 3.5 mph5.6 kmh 29.82 in1009.8 mb - 0.00 in0.0 mm 0.00 in0.0 mm
09:30 AM 62.4°F16.9°C 52.9°F11.6°C 71% Calm Calm -- 29.82 in1009.8 mb - 0.00 in0.0 mm 0.00 in0.0 mm
10:00 AM 62.3°F16.8°C 53.9°F12.2°C 74% 2.3 mph NE3.7 kmh NE 3.5 mph5.6 kmh 29.83 in1010.2 mb - 0.00 in0.0 mm 0.00 in0.0 mm
10:30 AM 63.6°F17.6°C 53.6°F12.0°C 70% 2.3 mph ENE3.7 kmh ENE 3.5 mph5.6 kmh 29.83 in1010.2 mb - 0.00 in0.0 mm 0.00 in0.0 mm
11:00 AM 66.6°F19.2°C 54.9°F12.7°C 66% 1.2 mph ENE1.9 kmh ENE 1.2 mph1.9 kmh 29.83 in1010.2 mb - 0.00 in0.0 mm 0.00 in0.0 mm
11:30 AM 66.8°F19.3°C 52.0°F11.1°C 59% 4.6 mph WSW7.4 kmh WSW 10.4 mph16.7 kmh 29.83 in1010.2 mb - 0.00 in0.0 mm 0.00 in0.0 mm
12:00 PM 66.7°F19.3°C 52.4°F11.3°C 60% 9.2 mph WSW14.8 kmh WSW 13.8 mph22.2 kmh 29.83 in1010.2 mb - 0.00 in0.0 mm 0.00 in0.0 mm
12:30 PM 67.4°F19.7°C 52.1°F11.2°C 58% 10.4 mph WSW16.7 kmh WSW 19.6 mph31.5 kmh 29.82 in1009.8 mb - 0.00 in0.0 mm 0.00 in0.0 mm
01:00 PM 67.9°F19.9°C 51.6°F10.9°C 56% 10.4 mph SW16.7 kmh SW 16.1 mph25.9 kmh 29.82 in1009.8 mb - 0.00 in0.0 mm 0.00 in0.0 mm
01:30 PM 69.1°F20.6°C 52.8°F11.6°C 56% 10.4 mph SW16.7 kmh SW 18.4 mph29.6 kmh 29.81 in1009.5 mb - 0.00 in0.0 mm 0.00 in0.0 mm
02:00 PM 68.4°F20.2°C 52.6°F11.4°C 57% 11.5 mph SW18.5 kmh SW 16.1 mph25.9 kmh 29.81 in1009.5 mb - 0.00 in0.0 mm 0.00 in0.0 mm
02:30 PM 68.6°F20.3°C 52.2°F11.2°C 56% 11.5 mph WSW18.5 kmh WSW 15.0 mph24.1 kmh 29.82 in1009.8 mb - 0.00 in0.0 mm 0.00 in0.0 mm
03:00 PM 67.7°F19.8°C 51.9°F11.1°C 57% 17.3 mph WSW27.8 kmh WSW 26.5 mph42.6 kmh 29.81 in1009.5 mb - 0.00 in0.0 mm 0.00 in0.0 mm
03:30 PM 67.1°F19.5°C 52.7°F11.5°C 60% 12.7 mph WSW20.4 kmh WSW 18.4 mph29.6 kmh 29.81 in1009.5 mb - 0.00 in0.0 mm 0.00 in0.0 mm
04:00 PM 66.5°F19.2°C 52.6°F11.4°C 61% 18.4 mph WSW29.6 kmh WSW 28.8 mph46.3 kmh 29.81 in1009.5 mb - 0.00 in0.0 mm 0.00 in0.0 mm
04:30 PM 65.8°F18.8°C 52.9°F11.6°C 63% 17.3 mph SW27.8 kmh SW 21.9 mph35.2 kmh 29.82 in1009.8 mb - 0.00 in0.0 mm 0.00 in0.0 mm
05:00 PM 64.7°F18.2°C 52.2°F11.2°C 64% 4.6 mph WSW7.4 kmh WSW 8.1 mph13.0 kmh 29.83 in1010.2 mb - 0.00 in0.0 mm 0.00 in0.0 mm
05:30 PM 64.8°F18.2°C 52.3°F11.3°C 64% 1.2 mph W1.9 kmh W 1.2 mph1.9 kmh 29.84 in1010.5 mb - 0.00 in0.0 mm 0.00 in0.0 mm
06:00 PM 65.9°F18.8°C 52.1°F11.2°C 61% 3.5 mph WNW5.6 kmh WNW 5.8 mph9.3 kmh 29.84 in1010.5 mb - 0.00 in0.0 mm 0.00 in0.0 mm
06:30 PM 66.6°F19.2°C 53.2°F11.8°C 62% Calm Calm 2.3 mph3.7 kmh 29.85 in1010.8 mb - 0.00 in0.0 mm 0.00 in0.0 mm
07:00 PM 64.5°F18.1°C 52.4°F11.3°C 65% 8.1 mph WSW13.0 kmh WSW 11.5 mph18.5 kmh 29.85 in1010.8 mb - 0.00 in0.0 mm 0.00 in0.0 mm
07:30 PM 60.5°F15.8°C 51.8°F11.0°C 73% 5.8 mph WSW9.3 kmh WSW 6.9 mph11.1 kmh 29.86 in1011.2 mb - 0.00 in0.0 mm 0.00 in0.0 mm
08:00 PM 59.1°F15.1°C 51.9°F11.1°C 77% 4.6 mph WSW7.4 kmh WSW 12.7 mph20.4 kmh 29.87 in1011.5 mb - 0.00 in0.0 mm 0.00 in0.0 mm
08:30 PM 58.9°F14.9°C 51.4°F10.8°C 76% Calm Calm 1.2 mph1.9 kmh 29.89 in1012.2 mb - 0.00 in0.0 mm 0.00 in0.0 mm
09:00 PM 56.9°F13.8°C 51.1°F10.6°C 81% 5.8 mph SW9.3 kmh SW 6.9 mph11.1 kmh 29.90 in1012.5 mb - 0.00 in0.0 mm 0.00 in0.0 mm
09:30 PM 56.5°F13.6°C 51.1°F10.6°C 82% 5.8 mph WSW9.3 kmh WSW 9.2 mph14.8 kmh 29.90 in1012.5 mb - 0.00 in0.0 mm 0.00 in0.0 mm
10:00 PM 56.1°F13.4°C 51.0°F10.6°C 83% 1.2 mph WSW1.9 kmh WSW 2.3 mph3.7 kmh 29.90 in1012.5 mb - 0.00 in0.0 mm 0.00 in0.0 mm
10:30 PM 55.5°F13.1°C 50.7°F10.4°C 84% Calm Calm -- 29.91 in1012.9 mb - 0.00 in0.0 mm 0.00 in0.0 mm
11:00 PM 55.1°F12.8°C 50.4°F10.2°C 84% Calm Calm -- 29.91 in1012.9 mb - 0.00 in0.0 mm 0.00 in0.0 mm
11:30 PM 54.0°F12.2°C 49.9°F9.9°C 86% Calm Calm 1.2 mph1.9 kmh 29.92 in1013.2 mb - 0.00 in0.0 mm 0.00 in0.0 mm